Weldon, Iowa
Current Conditions -  °F | °C
As of 11:55 AM on Wednesday 28 Jan 2015 (Local Time) from KI75 Reporting Station
Clear Clear  
Wind Chill: 36°   Ceiling: Unl
Heat Index: 43°   Visibility: 10mi
Dew Point: 35°   Wind: 15mph
Humidity: 71%   Direction: 140°SE
Pressure: 29.87"   Gusts: 21mph
Location:  40.9°N, 93.73°W
Report Text: KI75 281755Z AUTO 14013G18KT 10SM CLR 06/01 A2987 RMK AO2 T00630014 10064 21013
Loading
Personal Weather Stations






























Interactive Weather Map New forecast layout! Learn more

10-Day Weather Forecast

Advertisements
Track Severe Weather on mobile